Главная страница
METAR-TAF:

METAR-TAF

Аэропорты :

Загреб, Хорватия

широта: 45-44N, долгота: 016-04E, высота над уровнем моря: 106 м

Текущие метеонаблюдения

Эта сводка был подготовлена 30 минут назад, в 07:00 UTC
Ветер 8 Узел от западный-юго-западный
Температура 17°C
Влажность 52%
Давление 1016 hPa
Видимость 10 км и более
Нет облачности ниже 1500 м, и нет кучево-дождевой облачности

METAR: LDZA 230700Z 25008KT CAVOK 17/07 Q1016 NOSIG

Время: 09:30 (07:30 UTC)

Прогноз

Эта сводка был подготовлена 45 минут назад, в 06:45 UTC
Прогноз действительный с 23-го 06 UTC до 24-го 06 UTC
Ветер 5 Узел от юго-западный
Видимость 10 км и более
Нет облачности ниже 1500 м, и нет кучево-дождевой облачности
Вероятность 30% :
временами
С 23-го 08 UTC до 23-го 11 UTC
Ветер 10 Узел переменных направлений
небольшая облачность на высоте 5000 фута, Кучево-дождевые.
гроза, дождь

TAF: LDZA 230645Z 2306/2406 23005KT CAVOK TX28/2313Z TN12/2404Z PROB30 TEMPO 2308/2311 VRB10KT TSRA FEW050CB

Метеонаблюдения и прогнозы для более 4000 аэропортов (сводки METAR и TAF).

Имеющиеся станции представлены на карте желтыми и красными точками.

Чтобы увидеть название станции, наведите на нее мышь.

Затем щелкните, чтобы увидеть метеонаблюдения и метеопрогнозы.

Управление картой: чтобы увеличить масштаб, щелкните зеленые кнопки с черным крестиком; чтобы уменьшить масштаб, щелкните зеленую кнопку с тире; для просмотра соседних карт щелкайте зеленые стрелки.


METAR-TAF: